createdAt,value
2023-03-10T00:00:41.098Z,6.88
2023-03-10T00:03:08.673Z,6.34
2023-03-10T00:05:37.769Z,6.51
2023-03-10T00:08:06.152Z,6.83
2023-03-10T00:10:33.261Z,6.76
2023-03-10T00:13:00.401Z,6.78
2023-03-10T00:15:27.505Z,6.63
2023-03-10T00:17:58.220Z,6.63
2023-03-10T00:20:25.257Z,6.46
2023-03-10T00:22:52.358Z,6.66
2023-03-10T00:25:19.559Z,6.47
2023-03-10T00:27:46.713Z,6.15
2023-03-10T00:30:13.938Z,6.32
2023-03-10T00:32:41.013Z,6.33
2023-03-10T00:35:08.340Z,6.07
2023-03-10T00:37:39.166Z,6.42
2023-03-10T00:40:11.326Z,5.99
2023-03-10T00:42:38.366Z,6.12
2023-03-10T00:45:06.528Z,6.30
2023-03-10T00:47:34.047Z,6.22
2023-03-10T00:50:01.051Z,6.05
2023-03-10T00:52:32.962Z,5.93
2023-03-10T00:55:00.221Z,5.77
2023-03-10T00:57:27.215Z,5.95
2023-03-10T00:59:54.431Z,6.17
2023-03-10T01:02:22.049Z,5.56
2023-03-10T01:04:49.221Z,5.67
2023-03-10T01:07:17.694Z,6.26
2023-03-10T01:09:44.752Z,6.00
2023-03-10T01:12:12.014Z,6.42
2023-03-10T01:14:39.241Z,5.34
2023-03-10T01:17:06.417Z,5.98
2023-03-10T01:19:33.769Z,6.46
2023-03-10T01:22:01.940Z,6.28
2023-03-10T01:24:29.126Z,5.43
2023-03-10T01:26:56.087Z,5.89
2023-03-10T01:29:23.172Z,6.21
2023-03-10T01:31:50.381Z,6.56
2023-03-10T01:34:17.493Z,5.93
2023-03-10T01:36:44.522Z,6.41
2023-03-10T01:39:13.601Z,6.08
2023-03-10T01:41:41.754Z,6.28
2023-03-10T01:44:18.309Z,6.35
2023-03-10T01:46:48.615Z,5.69
2023-03-10T01:49:43.485Z,6.35
2023-03-10T01:52:18.318Z,6.48
2023-03-10T01:55:20.210Z,6.38
2023-03-10T01:57:51.156Z,6.38
2023-03-10T02:00:19.883Z,5.95
2023-03-10T02:02:53.158Z,6.44
2023-03-10T02:05:21.817Z,6.43
2023-03-10T02:07:49.276Z,6.18
2023-03-10T02:10:16.652Z,5.72
2023-03-10T02:12:43.947Z,6.17
2023-03-10T02:15:11.937Z,6.15
2023-03-10T02:17:40.614Z,6.46
2023-03-10T02:20:44.661Z,5.92
2023-03-10T02:23:18.565Z,6.20
2023-03-10T02:25:53.978Z,6.43
2023-03-10T02:28:21.003Z,6.43
2023-03-10T02:30:51.125Z,6.16
2023-03-10T02:33:26.374Z,5.85
2023-03-10T02:36:02.025Z,6.17
2023-03-10T02:38:29.154Z,6.08
2023-03-10T02:40:57.625Z,5.68
2023-03-10T02:43:36.175Z,6.32
2023-03-10T02:46:23.871Z,5.77
2023-03-10T02:48:51.937Z,6.12
2023-03-10T02:51:30.060Z,6.28
2023-03-10T02:54:01.440Z,5.77
2023-03-10T02:56:30.079Z,6.34
2023-03-10T02:58:59.650Z,5.99
2023-03-10T03:01:27.020Z,5.69
2023-03-10T03:03:55.733Z,6.39
2023-03-10T03:06:23.110Z,6.31
2023-03-10T03:08:50.477Z,6.27
2023-03-10T03:11:20.024Z,6.21
2023-03-10T03:13:47.561Z,6.15
2023-03-10T03:16:15.031Z,6.08
2023-03-10T03:18:44.023Z,5.85
2023-03-10T03:21:17.800Z,6.32
2023-03-10T03:23:46.909Z,6.40
2023-03-10T03:26:22.675Z,6.49
2023-03-10T03:28:52.951Z,6.49
2023-03-10T03:31:25.631Z,6.12
2023-03-10T03:34:02.340Z,5.88
2023-03-10T03:36:29.403Z,5.60
2023-03-10T03:38:56.801Z,6.06
2023-03-10T03:41:25.116Z,6.12
2023-03-10T03:43:52.259Z,6.23
2023-03-10T03:46:19.502Z,5.95
2023-03-10T03:48:46.718Z,5.57
2023-03-10T03:51:13.919Z,6.42
2023-03-10T03:53:42.842Z,5.86
2023-03-10T03:56:09.949Z,6.44
2023-03-10T03:58:38.339Z,6.35
2023-03-10T04:01:05.585Z,6.17
2023-03-10T04:03:39.772Z,6.03
2023-03-10T04:06:08.151Z,6.32
2023-03-10T04:08:35.756Z,5.61
2023-03-10T04:11:03.997Z,6.04
2023-03-10T04:13:32.365Z,6.17
2023-03-10T04:16:00.212Z,6.43
2023-03-10T04:18:32.917Z,5.86
2023-03-10T04:21:00.410Z,6.45
2023-03-10T04:23:28.120Z,6.42
2023-03-10T04:25:56.038Z,6.43
2023-03-10T04:28:23.486Z,5.72
2023-03-10T04:30:54.113Z,6.47
2023-03-10T04:33:24.708Z,6.49
2023-03-10T04:35:52.902Z,5.71
2023-03-10T04:38:23.743Z,5.91
2023-03-10T04:40:56.417Z,6.35
2023-03-10T04:43:28.073Z,6.44
2023-03-10T04:45:56.398Z,6.22
2023-03-10T04:48:24.582Z,5.83
2023-03-10T04:50:59.806Z,6.38
2023-03-10T04:53:30.266Z,5.99
2023-03-10T04:55:57.383Z,5.93
2023-03-10T04:58:24.863Z,6.59
2023-03-10T05:01:02.918Z,6.54
2023-03-10T05:03:35.486Z,6.29
2023-03-10T05:06:04.153Z,5.95
2023-03-10T05:08:31.360Z,6.73
2023-03-10T05:10:59.270Z,6.74
2023-03-10T05:13:26.433Z,6.86
2023-03-10T05:15:53.988Z,6.60
2023-03-10T05:18:21.102Z,6.39
2023-03-10T05:20:57.175Z,6.30
2023-03-10T05:23:25.688Z,6.02
2023-03-10T05:25:53.284Z,6.42
2023-03-10T05:28:23.955Z,6.33
2023-03-10T05:30:51.372Z,6.92
2023-03-10T05:33:18.505Z,5.27
2023-03-10T05:35:45.529Z,6.90
2023-03-10T05:38:12.691Z,6.08
2023-03-10T05:40:41.730Z,6.43
2023-03-10T05:43:09.005Z,6.91
2023-03-10T05:45:36.421Z,6.89
2023-03-10T05:48:04.330Z,6.61
2023-03-10T05:50:31.444Z,6.74
2023-03-10T05:52:58.536Z,6.83
2023-03-10T05:55:28.720Z,6.77
2023-03-10T05:57:56.201Z,6.50
2023-03-10T06:00:24.322Z,7.16
2023-03-10T06:02:59.116Z,7.08
2023-03-10T06:05:26.244Z,6.40
2023-03-10T06:07:53.347Z,7.18
2023-03-10T06:10:20.528Z,6.76
2023-03-10T06:12:47.630Z,7.03
2023-03-10T06:15:14.838Z,6.33
2023-03-10T06:17:41.748Z,7.26
2023-03-10T06:20:09.310Z,6.92
2023-03-10T06:22:36.406Z,6.89
2023-03-10T06:25:03.706Z,7.65
2023-03-10T06:27:31.974Z,7.46
2023-03-10T06:29:59.196Z,7.16
2023-03-10T06:32:26.437Z,7.32
2023-03-10T06:34:53.422Z,7.43
2023-03-10T06:37:21.276Z,7.46
2023-03-10T06:39:48.301Z,7.73
2023-03-10T06:42:15.392Z,7.71
2023-03-10T06:44:42.501Z,7.25
2023-03-10T06:47:09.462Z,7.59
2023-03-10T06:49:36.684Z,7.91
2023-03-10T06:52:04.064Z,7.82
2023-03-10T06:54:31.127Z,8.27
2023-03-10T06:56:58.282Z,8.39
2023-03-10T06:59:25.436Z,8.11
2023-03-10T07:01:52.392Z,8.29
2023-03-10T07:04:19.527Z,8.09
2023-03-10T07:06:46.630Z,8.34
2023-03-10T07:09:13.687Z,8.56
2023-03-10T07:11:41.219Z,8.61
2023-03-10T07:14:08.197Z,7.49
2023-03-10T07:16:35.345Z,8.60
2023-03-10T07:19:02.439Z,8.70
2023-03-10T07:21:29.748Z,8.66
2023-03-10T07:23:57.001Z,8.70
2023-03-10T07:26:24.128Z,9.00
2023-03-10T07:28:51.238Z,8.40
2023-03-10T07:31:18.443Z,8.99
2023-03-10T07:33:45.974Z,8.51
2023-03-10T07:36:15.913Z,9.06
2023-03-10T07:38:43.197Z,9.39
2023-03-10T07:41:12.008Z,9.45
2023-03-10T07:43:39.185Z,9.24
2023-03-10T07:46:08.088Z,8.53
2023-03-10T07:48:35.230Z,8.33
2023-03-10T07:51:02.446Z,9.30
2023-03-10T07:53:30.852Z,9.61
2023-03-10T07:55:57.986Z,9.61
2023-03-10T07:58:25.426Z,9.00
2023-03-10T08:00:57.019Z,9.54
2023-03-10T08:03:25.584Z,8.28
2023-03-10T08:05:52.969Z,9.37
2023-03-10T08:08:20.274Z,9.70
2023-03-10T08:10:47.502Z,9.63
2023-03-10T08:13:14.919Z,9.41
2023-03-10T08:15:42.447Z,9.65
2023-03-10T08:18:09.827Z,10.19
2023-03-10T08:20:37.318Z,9.44
2023-03-10T08:23:05.048Z,9.85
2023-03-10T08:25:32.390Z,9.94
2023-03-10T08:27:59.692Z,9.99
2023-03-10T08:30:26.814Z,10.12
2023-03-10T08:32:55.313Z,10.33
2023-03-10T08:35:23.754Z,10.18
2023-03-10T08:37:55.158Z,10.06
2023-03-10T08:40:22.629Z,10.06
2023-03-10T08:42:49.723Z,10.68
2023-03-10T08:45:16.863Z,10.40
2023-03-10T08:47:44.150Z,10.93
2023-03-10T08:50:15.084Z,10.82
2023-03-10T08:52:42.339Z,10.90
2023-03-10T08:55:11.445Z,10.72
2023-03-10T08:57:38.796Z,10.02
2023-03-10T09:00:07.330Z,9.47
2023-03-10T09:02:34.591Z,10.40
2023-03-10T09:05:01.617Z,9.83
2023-03-10T09:07:28.687Z,9.72
2023-03-10T09:09:55.882Z,11.02
2023-03-10T09:12:22.979Z,10.58
2023-03-10T09:14:50.264Z,10.87
2023-03-10T09:17:17.483Z,10.38
2023-03-10T09:19:44.898Z,11.09
2023-03-10T09:22:12.037Z,11.24
2023-03-10T09:24:39.252Z,11.16
2023-03-10T09:27:06.342Z,11.45
2023-03-10T09:29:43.178Z,11.16
2023-03-10T09:32:11.255Z,10.57
2023-03-10T09:34:38.457Z,11.13
2023-03-10T09:37:07.475Z,11.02
2023-03-10T09:39:35.465Z,11.38
2023-03-10T09:42:26.003Z,11.37
2023-03-10T09:45:06.737Z,10.96
2023-03-10T09:48:05.000Z,11.09
2023-03-10T09:50:39.222Z,11.21
2023-03-10T09:53:27.906Z,11.37
2023-03-10T09:55:55.023Z,11.42
2023-03-10T09:58:32.864Z,10.68
2023-03-10T10:01:01.360Z,9.97
2023-03-10T10:03:42.954Z,10.94
2023-03-10T10:06:22.742Z,11.10
2023-03-10T10:09:04.950Z,11.48
2023-03-10T10:11:36.487Z,11.27
2023-03-10T10:14:29.448Z,11.73
2023-03-10T10:17:05.290Z,11.90
2023-03-10T10:19:34.872Z,11.21
2023-03-10T10:22:29.157Z,11.84
2023-03-10T10:25:24.441Z,11.87
2023-03-10T10:27:57.186Z,11.76
2023-03-10T10:30:39.002Z,12.05
2023-03-10T10:33:11.868Z,10.60
2023-03-10T10:36:02.760Z,11.93
2023-03-10T10:38:31.847Z,11.37
2023-03-10T10:41:10.432Z,10.62
2023-03-10T10:43:45.812Z,11.73
2023-03-10T10:46:16.280Z,11.97
2023-03-10T10:48:48.570Z,11.29
2023-03-10T10:51:29.011Z,11.58
2023-03-10T10:54:02.462Z,11.88
2023-03-10T10:56:30.587Z,12.04
2023-03-10T10:59:22.117Z,10.59
2023-03-10T11:01:53.768Z,12.03
2023-03-10T11:04:22.348Z,10.81
2023-03-10T11:06:50.887Z,11.95
2023-03-10T11:09:20.872Z,11.58
2023-03-10T11:12:06.030Z,12.02
2023-03-10T11:14:44.702Z,12.13
2023-03-10T11:17:30.240Z,12.16
2023-03-10T11:20:23.960Z,12.22
2023-03-10T11:22:56.769Z,12.18
2023-03-10T11:25:47.821Z,12.15
2023-03-10T11:28:44.055Z,12.12
2023-03-10T11:31:22.979Z,12.24
2023-03-10T11:33:59.377Z,12.28
2023-03-10T11:36:56.447Z,12.14
2023-03-10T11:39:39.367Z,12.15
2023-03-10T11:42:38.437Z,12.07
2023-03-10T11:45:31.187Z,12.34
2023-03-10T11:48:03.454Z,11.97
2023-03-10T11:51:18.079Z,12.00
2023-03-10T11:53:50.387Z,11.82
2023-03-10T11:56:21.116Z,10.82
2023-03-10T11:59:22.136Z,11.74
2023-03-10T12:02:03.288Z,11.96
2023-03-10T12:04:39.487Z,11.91
2023-03-10T12:07:27.638Z,11.59
2023-03-10T12:10:25.949Z,11.74
2023-03-10T12:12:54.389Z,10.52
2023-03-10T12:15:25.584Z,11.66
2023-03-10T12:17:54.118Z,11.32
2023-03-10T12:20:21.142Z,11.47
2023-03-10T12:22:55.871Z,11.11
2023-03-10T12:25:29.127Z,11.41
2023-03-10T12:28:17.928Z,11.34
2023-03-10T12:30:51.267Z,11.29
2023-03-10T12:33:42.710Z,10.88
2023-03-10T12:36:34.325Z,11.13
2023-03-10T12:39:26.761Z,11.02
2023-03-10T12:41:57.361Z,11.04
2023-03-10T12:44:48.725Z,11.17
2023-03-10T12:47:35.431Z,11.13
2023-03-10T12:50:05.609Z,11.20
2023-03-10T12:52:44.905Z,11.33
2023-03-10T12:55:15.258Z,11.17
2023-03-10T12:57:57.714Z,10.67
2023-03-10T13:00:41.347Z,11.25
2023-03-10T13:03:11.569Z,11.00
2023-03-10T13:05:56.450Z,10.68
2023-03-10T13:08:33.668Z,10.84
2023-03-10T13:11:00.972Z,11.04
2023-03-10T13:13:33.255Z,10.61
2023-03-10T13:16:06.279Z,10.10
2023-03-10T13:18:35.409Z,10.07
2023-03-10T13:21:02.424Z,10.88
2023-03-10T13:23:34.649Z,10.82
2023-03-10T13:26:07.545Z,10.75
2023-03-10T13:28:36.027Z,10.27
2023-03-10T13:31:19.817Z,10.81
2023-03-10T13:33:53.196Z,10.88
2023-03-10T13:36:33.342Z,10.22
2023-03-10T13:39:25.639Z,10.73
2023-03-10T13:41:57.352Z,10.55
2023-03-10T13:44:31.786Z,10.42
2023-03-10T13:47:01.070Z,10.14
2023-03-10T13:49:33.195Z,10.17
2023-03-10T13:52:01.584Z,10.33
2023-03-10T13:54:37.343Z,9.94
2023-03-10T13:57:23.002Z,10.41
2023-03-10T13:59:50.930Z,10.09
2023-03-10T14:02:30.382Z,10.25
2023-03-10T14:04:58.620Z,9.81
2023-03-10T14:07:34.302Z,10.56
2023-03-10T14:10:03.981Z,10.22
2023-03-10T14:12:40.320Z,8.66
2023-03-10T14:15:29.013Z,9.69
2023-03-10T14:18:08.106Z,10.23
2023-03-10T14:20:36.936Z,10.10
2023-03-10T14:23:18.966Z,10.11
2023-03-10T14:25:57.434Z,9.77
2023-03-10T14:28:32.075Z,10.01
2023-03-10T14:31:00.817Z,10.02
2023-03-10T14:33:28.345Z,9.88
2023-03-10T14:35:55.557Z,9.47
2023-03-10T14:38:25.566Z,9.03
2023-03-10T14:40:55.175Z,9.84
2023-03-10T14:43:25.802Z,9.61
2023-03-10T14:45:55.533Z,9.57
2023-03-10T14:48:29.630Z,9.58
2023-03-10T14:50:57.198Z,9.84
2023-03-10T14:53:28.300Z,9.66
2023-03-10T14:55:57.298Z,9.81
2023-03-10T14:58:38.225Z,9.87
2023-03-10T15:01:06.118Z,9.58
2023-03-10T15:03:33.126Z,9.57
2023-03-10T15:06:00.278Z,9.25
2023-03-10T15:08:30.356Z,8.36
2023-03-10T15:10:57.721Z,9.41
2023-03-10T15:13:25.219Z,9.53
2023-03-10T15:15:55.478Z,9.91
2023-03-10T15:18:23.953Z,9.49
2023-03-10T15:20:51.135Z,9.24
2023-03-10T15:23:20.143Z,9.44
2023-03-10T15:25:48.017Z,9.61
2023-03-10T15:28:15.211Z,9.72
2023-03-10T15:30:42.486Z,9.37
2023-03-10T15:33:10.950Z,9.24
2023-03-10T15:35:39.428Z,9.65
2023-03-10T15:38:06.874Z,9.23
2023-03-10T15:40:35.361Z,9.32
2023-03-10T15:43:02.917Z,9.71
2023-03-10T15:45:31.095Z,9.67
2023-03-10T15:47:59.025Z,8.62
2023-03-10T15:50:26.651Z,9.71
2023-03-10T15:52:56.027Z,9.06
2023-03-10T15:55:24.569Z,9.35
2023-03-10T15:57:52.486Z,8.46
2023-03-10T16:00:21.885Z,9.62
2023-03-10T16:02:50.040Z,9.26
2023-03-10T16:05:18.112Z,9.10
2023-03-10T16:07:45.483Z,7.49
2023-03-10T16:10:18.686Z,9.63
2023-03-10T16:12:46.262Z,7.82
2023-03-10T16:15:17.585Z,9.15
2023-03-10T16:17:45.604Z,8.99
2023-03-10T16:20:14.035Z,9.22
2023-03-10T16:22:43.239Z,9.46
2023-03-10T16:25:21.336Z,9.39
2023-03-10T16:27:48.820Z,9.41
2023-03-10T16:30:17.863Z,9.37
2023-03-10T16:32:48.988Z,9.48
2023-03-10T16:35:17.669Z,9.60
2023-03-10T16:37:44.700Z,9.27
2023-03-10T16:40:12.500Z,9.51
2023-03-10T16:42:43.397Z,9.20
2023-03-10T16:45:11.241Z,8.90
2023-03-10T16:47:38.506Z,8.85
2023-03-10T16:50:06.033Z,9.40
2023-03-10T16:52:39.637Z,9.04
2023-03-10T16:55:08.994Z,9.06
2023-03-10T16:57:36.493Z,8.86
2023-03-10T17:00:05.723Z,9.06
2023-03-10T17:02:32.729Z,8.41
2023-03-10T17:04:59.708Z,9.02
2023-03-10T17:07:27.238Z,9.06
2023-03-10T17:09:54.236Z,9.12
2023-03-10T17:12:27.312Z,9.15
2023-03-10T17:14:55.824Z,8.75
2023-03-10T17:17:22.793Z,9.20
2023-03-10T17:19:53.042Z,9.04
2023-03-10T17:22:20.151Z,9.31
2023-03-10T17:24:53.806Z,8.79
2023-03-10T17:27:20.903Z,8.59
2023-03-10T17:29:48.030Z,9.22
2023-03-10T17:32:15.338Z,8.96
2023-03-10T17:34:43.390Z,9.32
2023-03-10T17:37:10.394Z,9.37
2023-03-10T17:39:37.460Z,9.26
2023-03-10T17:42:04.563Z,8.60
2023-03-10T17:44:31.702Z,9.02
2023-03-10T17:46:58.851Z,9.30
2023-03-10T17:49:25.855Z,8.09
2023-03-10T17:51:52.886Z,9.31
2023-03-10T17:54:22.470Z,9.16
2023-03-10T17:56:50.417Z,9.59
2023-03-10T17:59:18.059Z,8.02
2023-03-10T18:01:46.062Z,9.40
2023-03-10T18:04:13.752Z,9.72
2023-03-10T18:06:41.838Z,8.94
2023-03-10T18:09:14.733Z,9.34
2023-03-10T18:11:41.940Z,9.71
2023-03-10T18:14:09.098Z,9.56
2023-03-10T18:16:39.736Z,9.76
2023-03-10T18:19:10.507Z,8.34
2023-03-10T18:21:38.935Z,9.79
2023-03-10T18:24:06.721Z,9.11
2023-03-10T18:26:35.624Z,9.18
2023-03-10T18:29:02.590Z,9.45
2023-03-10T18:31:32.393Z,9.43
2023-03-10T18:34:00.239Z,9.48
2023-03-10T18:36:28.294Z,9.60
2023-03-10T18:38:56.207Z,9.42
2023-03-10T18:41:26.498Z,9.36
2023-03-10T18:43:53.704Z,8.60
2023-03-10T18:46:21.194Z,9.50
2023-03-10T18:48:48.887Z,8.99
2023-03-10T18:51:16.005Z,9.13
2023-03-10T18:53:43.190Z,9.42
2023-03-10T18:56:10.340Z,9.05
2023-03-10T18:58:37.488Z,9.68
2023-03-10T19:01:10.892Z,9.34
2023-03-10T19:03:38.512Z,8.35
2023-03-10T19:06:06.739Z,9.76
2023-03-10T19:08:38.271Z,9.74
2023-03-10T19:11:07.087Z,9.08
2023-03-10T19:13:35.077Z,9.54
2023-03-10T19:16:09.886Z,8.50
2023-03-10T19:18:37.449Z,9.90
2023-03-10T19:21:05.035Z,9.22
2023-03-10T19:23:34.170Z,9.21
2023-03-10T19:26:02.195Z,9.78
2023-03-10T19:28:29.500Z,9.42
2023-03-10T19:30:56.773Z,9.65
2023-03-10T19:33:24.103Z,9.67
2023-03-10T19:36:00.422Z,9.12
2023-03-10T19:38:28.402Z,8.74
2023-03-10T19:40:55.568Z,8.80
2023-03-10T19:43:22.714Z,9.21
2023-03-10T19:45:49.832Z,9.45
2023-03-10T19:48:17.050Z,8.12
2023-03-10T19:50:44.007Z,8.66
2023-03-10T19:53:11.155Z,9.17
2023-03-10T19:55:38.350Z,9.11
2023-03-10T19:58:05.490Z,8.89
2023-03-10T20:00:36.229Z,9.33
2023-03-10T20:03:03.843Z,9.50
2023-03-10T20:05:31.276Z,9.48
2023-03-10T20:07:58.402Z,9.30
2023-03-10T20:10:25.496Z,8.87
2023-03-10T20:12:52.856Z,7.78
2023-03-10T20:15:20.122Z,7.47
2023-03-10T20:17:47.407Z,8.02
2023-03-10T20:20:15.468Z,9.33
2023-03-10T20:22:45.753Z,9.30
2023-03-10T20:25:16.153Z,9.02
2023-03-10T20:27:43.961Z,8.70
2023-03-10T20:30:16.798Z,8.24
2023-03-10T20:32:47.127Z,9.21
2023-03-10T20:35:15.094Z,9.08
2023-03-10T20:37:42.806Z,8.50
2023-03-10T20:40:13.094Z,8.96
2023-03-10T20:42:40.501Z,9.01
2023-03-10T20:45:10.614Z,8.98
2023-03-10T20:47:38.054Z,8.85
2023-03-10T20:50:10.193Z,9.22
2023-03-10T20:52:39.764Z,9.13
2023-03-10T20:55:08.282Z,9.05
2023-03-10T20:57:35.344Z,9.11
2023-03-10T21:00:02.826Z,8.25
2023-03-10T21:02:29.827Z,8.41
2023-03-10T21:04:56.778Z,8.66
2023-03-10T21:07:23.870Z,8.54
2023-03-10T21:09:51.026Z,8.49
2023-03-10T21:12:19.090Z,8.64
2023-03-10T21:14:46.430Z,8.75
2023-03-10T21:17:13.716Z,8.86
2023-03-10T21:19:40.868Z,8.76
2023-03-10T21:22:08.158Z,8.51
2023-03-10T21:24:35.104Z,8.07
2023-03-10T21:27:02.246Z,8.62
2023-03-10T21:29:29.406Z,8.38
2023-03-10T21:31:56.611Z,7.90
2023-03-10T21:34:23.674Z,8.73
2023-03-10T21:36:50.862Z,8.29
2023-03-10T21:39:18.460Z,8.55
2023-03-10T21:41:45.699Z,8.74
2023-03-10T21:44:12.790Z,8.60
2023-03-10T21:46:40.188Z,8.59
2023-03-10T21:49:07.627Z,8.20
2023-03-10T21:51:35.525Z,8.69
2023-03-10T21:54:03.509Z,7.93
2023-03-10T21:56:31.366Z,8.64
2023-03-10T21:58:58.460Z,8.56
2023-03-10T22:01:27.084Z,8.79
2023-03-10T22:03:54.288Z,8.47
2023-03-10T22:06:25.474Z,8.16
2023-03-10T22:08:52.599Z,8.72
2023-03-10T22:11:19.643Z,8.82
2023-03-10T22:13:46.760Z,8.78
2023-03-10T22:16:17.668Z,8.86
2023-03-10T22:18:45.522Z,8.60
2023-03-10T22:21:12.559Z,8.54
2023-03-10T22:23:40.020Z,8.34
2023-03-10T22:26:08.206Z,8.20
2023-03-10T22:28:35.198Z,8.71
2023-03-10T22:31:05.988Z,8.31
2023-03-10T22:33:34.269Z,8.41
2023-03-10T22:36:06.440Z,8.49
2023-03-10T22:38:33.640Z,8.56
2023-03-10T22:41:01.182Z,8.39
2023-03-10T22:43:28.366Z,8.39
2023-03-10T22:45:59.978Z,8.64
2023-03-10T22:48:26.958Z,8.30
2023-03-10T22:50:54.107Z,8.49
2023-03-10T22:53:21.241Z,8.50
2023-03-10T22:55:49.829Z,8.62
2023-03-10T22:58:16.733Z,8.70
2023-03-10T23:00:44.703Z,8.41
2023-03-10T23:03:13.899Z,8.36
2023-03-10T23:05:41.819Z,8.52
2023-03-10T23:08:09.145Z,8.72
2023-03-10T23:10:37.924Z,8.55
2023-03-10T23:13:08.225Z,8.21
2023-03-10T23:15:37.460Z,8.63
2023-03-10T23:18:05.416Z,8.62
2023-03-10T23:20:36.617Z,8.50
2023-03-10T23:23:05.899Z,8.92
2023-03-10T23:25:36.737Z,8.97
2023-03-10T23:28:04.902Z,8.89
2023-03-10T23:30:32.121Z,8.34
2023-03-10T23:32:59.671Z,8.88
2023-03-10T23:35:32.512Z,8.81
2023-03-10T23:38:00.782Z,8.59
2023-03-10T23:40:29.888Z,8.87
2023-03-10T23:42:59.200Z,8.81
2023-03-10T23:45:28.202Z,8.38
2023-03-10T23:47:56.172Z,8.91
2023-03-10T23:50:27.809Z,8.87
2023-03-10T23:52:55.541Z,8.48
2023-03-10T23:55:29.500Z,8.99
2023-03-10T23:57:56.691Z,8.92
